createdAt,value
2023-02-05T00:00:21.214Z,98165.34
2023-02-05T00:02:49.612Z,98168.81
2023-02-05T00:05:18.006Z,98181.94
2023-02-05T00:07:51.256Z,98174.22
2023-02-05T00:10:19.612Z,98169.81
2023-02-05T00:12:48.019Z,98177.44
2023-02-05T00:15:16.426Z,98169.50
2023-02-05T00:17:46.089Z,98176.44
2023-02-05T00:20:14.463Z,98168.59
2023-02-05T00:22:42.768Z,98167.72
2023-02-05T00:25:11.113Z,98160.13
2023-02-05T00:27:39.467Z,98160.97
2023-02-05T00:30:09.421Z,98167.03
2023-02-05T00:32:38.244Z,98169.66
2023-02-05T00:35:08.323Z,98165.50
2023-02-05T00:37:37.089Z,98169.88
2023-02-05T00:40:06.317Z,98166.28
2023-02-05T00:42:34.860Z,98166.19
2023-02-05T00:45:03.285Z,98160.97
2023-02-05T00:47:31.614Z,98157.53
2023-02-05T00:50:05.653Z,98158.53
2023-02-05T00:52:35.408Z,98154.22
2023-02-05T00:55:03.819Z,98154.28
2023-02-05T00:57:35.475Z,98157.06
2023-02-05T01:00:03.952Z,98161.50
2023-02-05T01:02:32.325Z,98170.44
2023-02-05T01:05:00.667Z,98176.56
2023-02-05T01:07:29.013Z,98177.47
2023-02-05T01:09:58.933Z,98181.84
2023-02-05T01:12:27.620Z,98181.09
2023-02-05T01:14:56.023Z,98185.25
2023-02-05T01:17:27.195Z,98184.41
2023-02-05T01:19:55.722Z,98181.09
2023-02-05T01:22:24.104Z,98176.63
2023-02-05T01:24:52.961Z,98173.47
2023-02-05T01:27:22.719Z,98170.59
2023-02-05T01:29:51.074Z,98163.00
2023-02-05T01:32:20.053Z,98160.38
2023-02-05T01:34:48.394Z,98157.69
2023-02-05T01:37:16.801Z,98155.16
2023-02-05T01:39:45.360Z,98149.22
2023-02-05T01:42:20.015Z,98159.53
2023-02-05T01:45:21.698Z,98155.28
2023-02-05T01:47:52.900Z,98148.63
2023-02-05T01:50:33.603Z,98147.88
2023-02-05T01:53:06.904Z,98145.25
2023-02-05T01:55:37.821Z,98140.63
2023-02-05T01:58:06.200Z,98148.97
2023-02-05T02:00:34.532Z,98147.91
2023-02-05T02:03:06.298Z,98148.41
2023-02-05T02:05:34.940Z,98151.78
2023-02-05T02:08:03.704Z,98143.81
2023-02-05T02:10:33.661Z,98145.44
2023-02-05T02:13:02.450Z,98147.03
2023-02-05T02:15:31.283Z,98146.44
2023-02-05T02:18:17.377Z,98142.47
2023-02-05T02:20:53.914Z,98149.28
2023-02-05T02:23:28.911Z,98152.63
2023-02-05T02:26:24.986Z,98157.13
2023-02-05T02:29:01.254Z,98152.13
2023-02-05T02:31:32.738Z,98155.53
2023-02-05T02:34:04.950Z,98158.00
2023-02-05T02:36:36.737Z,98158.69
2023-02-05T02:39:11.259Z,98155.09
2023-02-05T02:41:44.424Z,98152.50
2023-02-05T02:44:18.063Z,98146.56
2023-02-05T02:46:49.981Z,98142.16
2023-02-05T02:49:24.020Z,98142.94
2023-02-05T02:51:53.303Z,98138.44
2023-02-05T02:54:24.087Z,98133.97
2023-02-05T02:56:53.871Z,98138.19
2023-02-05T02:59:26.928Z,98133.06
2023-02-05T03:01:58.349Z,98134.03
2023-02-05T03:04:31.913Z,98134.28
2023-02-05T03:07:10.521Z,98135.16
2023-02-05T03:09:43.183Z,98130.75
2023-02-05T03:12:11.522Z,98118.47
2023-02-05T03:14:41.384Z,98115.75
2023-02-05T03:17:10.773Z,98118.25
2023-02-05T03:19:39.373Z,98119.00
2023-02-05T03:22:07.731Z,98120.78
2023-02-05T03:24:36.403Z,98108.78
2023-02-05T03:27:04.830Z,98116.06
2023-02-05T03:29:38.985Z,98108.44
2023-02-05T03:32:21.516Z,98105.00
2023-02-05T03:35:04.113Z,98114.66
2023-02-05T03:37:42.441Z,98104.94
2023-02-05T03:40:18.637Z,98095.91
2023-02-05T03:42:59.453Z,98083.91
2023-02-05T03:45:37.315Z,98092.59
2023-02-05T03:48:38.516Z,98091.69
2023-02-05T03:51:23.742Z,98088.00
2023-02-05T03:54:02.556Z,98082.31
2023-02-05T03:56:38.189Z,98074.47
2023-02-05T03:59:07.655Z,98078.63
2023-02-05T04:01:36.503Z,98068.13
2023-02-05T04:04:04.990Z,98061.00
2023-02-05T04:06:34.678Z,98067.00
2023-02-05T04:09:03.132Z,98073.88
2023-02-05T04:11:32.958Z,98071.38
2023-02-05T04:14:01.314Z,98071.50
2023-02-05T04:16:29.630Z,98077.72
2023-02-05T04:18:57.961Z,98071.38
2023-02-05T04:21:29.100Z,98085.59
2023-02-05T04:23:58.985Z,98079.97
2023-02-05T04:26:27.330Z,98072.38
2023-02-05T04:28:55.709Z,98078.53
2023-02-05T04:31:24.095Z,98075.81
2023-02-05T04:33:52.526Z,98074.03
2023-02-05T04:36:20.945Z,98073.31
2023-02-05T04:38:49.309Z,98071.50
2023-02-05T04:41:18.983Z,98064.78
2023-02-05T04:43:47.367Z,98064.94
2023-02-05T04:46:16.347Z,98066.00
2023-02-05T04:48:44.710Z,98059.94
2023-02-05T04:51:15.509Z,98048.53
2023-02-05T04:53:44.154Z,98056.13
2023-02-05T04:56:13.815Z,98057.69
2023-02-05T04:58:43.716Z,98046.13
2023-02-05T05:01:16.641Z,98040.78
2023-02-05T05:03:45.668Z,98039.72
2023-02-05T05:06:17.661Z,98045.16
2023-02-05T05:08:46.056Z,98043.16
2023-02-05T05:11:15.913Z,98039.91
2023-02-05T05:13:46.440Z,98032.72
2023-02-05T05:16:14.990Z,98033.34
2023-02-05T05:18:43.366Z,98037.69
2023-02-05T05:21:12.333Z,98040.75
2023-02-05T05:23:40.706Z,98041.03
2023-02-05T05:26:12.159Z,98047.09
2023-02-05T05:28:40.897Z,98045.59
2023-02-05T05:31:14.004Z,98051.94
2023-02-05T05:33:42.332Z,98044.53
2023-02-05T05:36:10.886Z,98040.81
2023-02-05T05:38:39.320Z,98032.59
2023-02-05T05:41:25.089Z,98037.50
2023-02-05T05:43:54.697Z,98043.22
2023-02-05T05:46:26.739Z,98038.72
2023-02-05T05:48:57.079Z,98035.56
2023-02-05T05:51:26.809Z,98031.75
2023-02-05T05:53:55.657Z,98032.72
2023-02-05T05:56:24.181Z,98038.22
2023-02-05T05:58:52.536Z,98029.06
2023-02-05T06:01:22.907Z,98031.59
2023-02-05T06:03:52.626Z,98034.72
2023-02-05T06:06:21.138Z,98034.66
2023-02-05T06:08:49.603Z,98036.72
2023-02-05T06:11:17.920Z,98044.53
2023-02-05T06:13:46.326Z,98038.16
2023-02-05T06:16:14.764Z,98034.41
2023-02-05T06:18:43.132Z,98042.31
2023-02-05T06:21:12.797Z,98043.78
2023-02-05T06:23:41.164Z,98040.13
2023-02-05T06:26:09.541Z,98052.09
2023-02-05T06:28:37.927Z,98051.22
2023-02-05T06:31:06.512Z,98059.44
2023-02-05T06:33:34.975Z,98051.91
2023-02-05T06:36:03.483Z,98045.25
2023-02-05T06:38:33.266Z,98046.25
2023-02-05T06:41:01.684Z,98050.63
2023-02-05T06:43:30.030Z,98054.03
2023-02-05T06:45:58.473Z,98061.63
2023-02-05T06:48:26.821Z,98059.94
2023-02-05T06:50:55.202Z,98064.28
2023-02-05T06:53:23.520Z,98065.34
2023-02-05T06:55:53.220Z,98077.56
2023-02-05T06:58:21.548Z,98082.69
2023-02-05T07:00:50.154Z,98073.47
2023-02-05T07:03:18.477Z,98074.75
2023-02-05T07:05:46.840Z,98070.72
2023-02-05T07:08:15.199Z,98074.53
2023-02-05T07:10:43.637Z,98067.41
2023-02-05T07:13:13.382Z,98072.50
2023-02-05T07:15:41.744Z,98069.91
2023-02-05T07:18:10.164Z,98073.34
2023-02-05T07:20:38.523Z,98078.78
2023-02-05T07:23:08.091Z,98085.75
2023-02-05T07:25:38.026Z,98076.31
2023-02-05T07:28:06.977Z,98072.28
2023-02-05T07:30:37.213Z,98074.19
2023-02-05T07:33:05.603Z,98077.56
2023-02-05T07:35:35.345Z,98070.53
2023-02-05T07:38:04.152Z,98075.59
2023-02-05T07:40:33.085Z,98084.91
2023-02-05T07:43:01.437Z,98079.56
2023-02-05T07:45:29.816Z,98062.97
2023-02-05T07:47:59.470Z,98063.69
2023-02-05T07:50:27.958Z,98063.53
2023-02-05T07:52:56.534Z,98068.53
2023-02-05T07:55:24.916Z,98064.38
2023-02-05T07:57:53.227Z,98063.44
2023-02-05T08:00:21.952Z,98059.69
2023-02-05T08:02:50.253Z,98059.50
2023-02-05T08:05:19.997Z,98053.22
2023-02-05T08:07:48.398Z,98045.97
2023-02-05T08:10:17.047Z,98050.94
2023-02-05T08:12:45.396Z,98048.78
2023-02-05T08:15:14.189Z,98046.66
2023-02-05T08:17:42.554Z,98053.47
2023-02-05T08:20:12.968Z,98047.41
2023-02-05T08:22:45.274Z,98058.56
2023-02-05T08:25:16.014Z,98068.78
2023-02-05T08:27:46.138Z,98067.88
2023-02-05T08:30:17.026Z,98065.31
2023-02-05T08:32:48.950Z,98061.09
2023-02-05T08:35:17.420Z,98061.09
2023-02-05T08:37:47.227Z,98064.47
2023-02-05T08:40:15.736Z,98073.31
2023-02-05T08:42:44.096Z,98068.16
2023-02-05T08:45:12.424Z,98063.53
2023-02-05T08:47:42.062Z,98059.25
2023-02-05T08:50:11.150Z,98061.53
2023-02-05T08:52:39.709Z,98060.63
2023-02-05T08:55:09.910Z,98056.09
2023-02-05T08:57:38.591Z,98058.31
2023-02-05T09:00:07.884Z,98048.38
2023-02-05T09:02:36.165Z,98041.28
2023-02-05T09:05:09.314Z,98029.75
2023-02-05T09:07:39.077Z,98020.75
2023-02-05T09:10:10.326Z,98012.69
2023-02-05T09:12:39.104Z,98007.38
2023-02-05T09:15:08.777Z,98013.38
2023-02-05T09:17:37.186Z,98010.50
2023-02-05T09:20:05.996Z,98012.66
2023-02-05T09:22:34.556Z,98017.63
2023-02-05T09:25:02.909Z,98012.41
2023-02-05T09:27:36.044Z,98012.19
2023-02-05T09:30:04.730Z,98010.16
2023-02-05T09:32:41.445Z,98013.25
2023-02-05T09:35:10.246Z,97999.84
2023-02-05T09:37:39.190Z,98003.28
2023-02-05T09:40:24.265Z,98007.44
2023-02-05T09:43:04.428Z,97999.03
2023-02-05T09:45:39.249Z,98007.03
2023-02-05T09:48:29.242Z,97998.47
2023-02-05T09:50:59.619Z,97999.56
2023-02-05T09:53:34.201Z,97995.50
2023-02-05T09:56:05.697Z,97994.31
2023-02-05T09:58:41.264Z,97989.56
2023-02-05T10:01:17.365Z,97985.31
2023-02-05T10:03:48.713Z,97993.41
2023-02-05T10:07:01.824Z,97986.22
2023-02-05T10:09:51.961Z,97980.03
2023-02-05T10:12:32.070Z,97978.09
2023-02-05T10:15:19.903Z,97977.09
2023-02-05T10:18:03.313Z,97960.13
2023-02-05T10:20:45.608Z,97961.38
2023-02-05T10:23:17.592Z,97952.25
2023-02-05T10:26:05.394Z,97956.28
2023-02-05T10:28:58.693Z,97946.09
2023-02-05T10:31:41.653Z,97931.94
2023-02-05T10:34:20.782Z,97915.94
2023-02-05T10:36:53.409Z,97910.41
2023-02-05T10:39:26.009Z,97902.28
2023-02-05T10:42:00.181Z,97904.59
2023-02-05T10:44:31.981Z,97898.22
2023-02-05T10:47:07.541Z,97895.13
2023-02-05T10:49:45.689Z,97887.50
2023-02-05T10:52:16.170Z,97873.06
2023-02-05T10:54:45.699Z,97869.81
2023-02-05T10:57:15.847Z,97864.50
2023-02-05T10:59:52.855Z,97862.19
2023-02-05T11:02:25.172Z,97856.28
2023-02-05T11:04:57.803Z,97860.84
2023-02-05T11:07:29.348Z,97861.59
2023-02-05T11:10:13.561Z,97856.94
2023-02-05T11:12:48.500Z,97852.84
2023-02-05T11:15:22.658Z,97857.59
2023-02-05T11:17:54.996Z,97852.66
2023-02-05T11:20:26.917Z,97858.66
2023-02-05T11:23:08.669Z,97850.25
2023-02-05T11:25:37.010Z,97848.56
2023-02-05T11:28:06.146Z,97837.16
2023-02-05T11:30:52.870Z,97845.78
2023-02-05T11:33:32.350Z,97835.22
2023-02-05T11:36:03.490Z,97838.34
2023-02-05T11:38:39.834Z,97833.34
2023-02-05T11:41:09.981Z,97832.25
2023-02-05T11:43:41.209Z,97832.66
2023-02-05T11:46:15.870Z,97826.63
2023-02-05T11:48:50.717Z,97832.78
2023-02-05T11:51:37.624Z,97829.59
2023-02-05T11:54:16.984Z,97831.47
2023-02-05T11:57:00.731Z,97831.06
2023-02-05T11:59:29.499Z,97824.69
2023-02-05T12:02:25.586Z,97822.44
2023-02-05T12:05:00.458Z,97825.41
2023-02-05T12:07:36.410Z,97819.88
2023-02-05T12:10:05.069Z,97822.38
2023-02-05T12:12:39.484Z,97823.97
2023-02-05T12:15:16.562Z,97813.69
2023-02-05T12:18:01.982Z,97814.59
2023-02-05T12:20:39.769Z,97815.81
2023-02-05T12:23:31.492Z,97807.41
2023-02-05T12:26:14.732Z,97810.16
2023-02-05T12:28:51.690Z,97812.16
2023-02-05T12:31:29.195Z,97815.16
2023-02-05T12:34:12.373Z,97805.19
2023-02-05T12:36:53.028Z,97805.53
2023-02-05T12:39:37.187Z,97804.66
2023-02-05T12:42:16.903Z,97802.03
2023-02-05T12:44:57.388Z,97798.41
2023-02-05T12:47:47.326Z,97794.53
2023-02-05T12:50:39.705Z,97796.03
2023-02-05T12:53:28.893Z,97795.88
2023-02-05T12:56:18.865Z,97783.69
2023-02-05T12:58:51.955Z,97787.09
2023-02-05T13:01:25.253Z,97786.69
2023-02-05T13:04:00.252Z,97790.69
2023-02-05T13:06:33.440Z,97793.44
2023-02-05T13:09:14.430Z,97788.28
2023-02-05T13:11:48.649Z,97788.78
2023-02-05T13:14:22.467Z,97785.00
2023-02-05T13:16:55.352Z,97780.47
2023-02-05T13:19:31.981Z,97779.84
2023-02-05T13:22:20.348Z,97784.59
2023-02-05T13:25:16.343Z,97774.00
2023-02-05T13:28:13.233Z,97778.63
2023-02-05T13:30:47.991Z,97783.16
2023-02-05T13:33:17.649Z,97778.97
2023-02-05T13:35:58.182Z,97780.94
2023-02-05T13:38:47.727Z,97786.50
2023-02-05T13:41:37.669Z,97783.06
2023-02-05T13:44:30.615Z,97778.13
2023-02-05T13:47:28.528Z,97785.88
2023-02-05T13:50:23.127Z,97771.47
2023-02-05T13:53:07.728Z,97776.59
2023-02-05T13:56:12.449Z,97774.63
2023-02-05T13:58:51.029Z,97769.28
2023-02-05T14:01:23.782Z,97771.81
2023-02-05T14:03:57.978Z,97777.72
2023-02-05T14:06:31.337Z,97776.00
2023-02-05T14:09:03.861Z,97771.72
2023-02-05T14:11:48.165Z,97767.19
2023-02-05T14:14:30.152Z,97766.22
2023-02-05T14:17:00.338Z,97765.41
2023-02-05T14:19:58.914Z,97764.56
2023-02-05T14:22:42.861Z,97773.38
2023-02-05T14:25:49.663Z,97763.84
2023-02-05T14:28:43.987Z,97757.94
2023-02-05T14:31:51.958Z,97749.22
2023-02-05T14:34:47.940Z,97753.72
2023-02-05T14:37:33.578Z,97739.81
2023-02-05T14:40:16.162Z,97738.88
2023-02-05T14:42:44.733Z,97747.59
2023-02-05T14:45:17.306Z,97742.34
2023-02-05T14:47:46.687Z,97738.88
2023-02-05T14:50:22.513Z,97748.66
2023-02-05T14:52:54.933Z,97744.47
2023-02-05T14:55:29.015Z,97749.00
2023-02-05T14:58:03.012Z,97750.56
2023-02-05T15:00:35.061Z,97744.47
2023-02-05T15:03:26.317Z,97749.81
2023-02-05T15:05:59.749Z,97748.34
2023-02-05T15:08:43.162Z,97758.88
2023-02-05T15:11:19.564Z,97744.03
2023-02-05T15:14:30.952Z,97753.72
2023-02-05T15:17:37.577Z,97755.16
2023-02-05T15:20:21.983Z,97761.06
2023-02-05T15:22:56.010Z,97764.78
2023-02-05T15:25:36.745Z,97768.19
2023-02-05T15:28:10.512Z,97768.28
2023-02-05T15:30:55.189Z,97770.47
2023-02-05T15:33:31.931Z,97770.78
2023-02-05T15:36:01.648Z,97778.19
2023-02-05T15:38:36.132Z,97788.28
2023-02-05T15:41:08.777Z,97790.75
2023-02-05T15:43:37.155Z,97795.97
2023-02-05T15:46:08.545Z,97800.75
2023-02-05T15:48:38.789Z,97800.50
2023-02-05T15:51:15.474Z,97801.28
2023-02-05T15:53:49.539Z,97802.44
2023-02-05T15:56:25.204Z,97808.06
2023-02-05T15:58:56.358Z,97803.19
2023-02-05T16:01:26.711Z,97800.94
2023-02-05T16:03:55.190Z,97797.59
2023-02-05T16:06:25.345Z,97796.25
2023-02-05T16:08:54.275Z,97806.22
2023-02-05T16:11:32.763Z,97811.84
2023-02-05T16:14:09.282Z,97824.53
2023-02-05T16:16:43.341Z,97817.88
2023-02-05T16:19:19.640Z,97821.47
2023-02-05T16:21:53.162Z,97820.72
2023-02-05T16:24:30.692Z,97829.03
2023-02-05T16:27:04.862Z,97834.91
2023-02-05T16:29:47.622Z,97837.97
2023-02-05T16:32:30.356Z,97834.97
2023-02-05T16:34:59.877Z,97844.63
2023-02-05T16:37:32.639Z,97842.00
2023-02-05T16:40:03.505Z,97841.91
2023-02-05T16:42:38.053Z,97833.38
2023-02-05T16:45:21.188Z,97841.25
2023-02-05T16:48:23.071Z,97840.88
2023-02-05T16:50:52.133Z,97841.53
2023-02-05T16:53:26.329Z,97851.81
2023-02-05T16:55:59.245Z,97841.25
2023-02-05T16:58:37.894Z,97837.88
2023-02-05T17:01:06.412Z,97842.84
2023-02-05T17:03:38.766Z,97840.75
2023-02-05T17:06:14.723Z,97842.53
2023-02-05T17:08:46.594Z,97841.69
2023-02-05T17:11:34.935Z,97851.09
2023-02-05T17:14:23.982Z,97847.19
2023-02-05T17:16:56.863Z,97856.44
2023-02-05T17:19:27.933Z,97846.56
2023-02-05T17:22:21.989Z,97843.59
2023-02-05T17:24:52.068Z,97848.06
2023-02-05T17:27:28.374Z,97844.03
2023-02-05T17:29:59.866Z,97845.72
2023-02-05T17:32:31.558Z,97843.03
2023-02-05T17:35:00.136Z,97843.13
2023-02-05T17:37:28.474Z,97843.13
2023-02-05T17:39:57.802Z,97844.13
2023-02-05T17:42:29.887Z,97840.75
2023-02-05T17:44:59.660Z,97840.56
2023-02-05T17:47:28.016Z,97853.38
2023-02-05T17:49:57.884Z,97850.69
2023-02-05T17:52:26.317Z,97856.75
2023-02-05T17:54:54.688Z,97855.56
2023-02-05T17:57:23.804Z,97845.00
2023-02-05T17:59:52.342Z,97843.41
2023-02-05T18:02:22.784Z,97840.22
2023-02-05T18:04:51.905Z,97834.97
2023-02-05T18:07:26.656Z,97831.31
2023-02-05T18:09:55.137Z,97838.34
2023-02-05T18:12:23.546Z,97835.94
2023-02-05T18:14:52.394Z,97832.72
2023-02-05T18:17:22.250Z,97831.03
2023-02-05T18:19:50.762Z,97837.38
2023-02-05T18:22:19.324Z,97842.97
2023-02-05T18:24:47.982Z,97846.41
2023-02-05T18:27:16.436Z,97842.97
2023-02-05T18:29:44.789Z,97844.47
2023-02-05T18:32:13.229Z,97840.66
2023-02-05T18:34:43.001Z,97839.53
2023-02-05T18:37:14.046Z,97838.78
2023-02-05T18:39:42.414Z,97834.41
2023-02-05T18:42:12.755Z,97833.56
2023-02-05T18:44:41.427Z,97828.59
2023-02-05T18:47:11.356Z,97834.09
2023-02-05T18:49:39.696Z,97847.09
2023-02-05T18:52:10.355Z,97837.66
2023-02-05T18:54:38.802Z,97850.81
2023-02-05T18:57:07.869Z,97850.16
2023-02-05T18:59:37.818Z,97852.09
2023-02-05T19:02:07.057Z,97853.06
2023-02-05T19:04:35.440Z,97857.44
2023-02-05T19:07:03.845Z,97852.97
2023-02-05T19:09:33.955Z,97845.78
2023-02-05T19:12:02.405Z,97848.41
2023-02-05T19:14:30.831Z,97846.78
2023-02-05T19:16:59.198Z,97850.34
2023-02-05T19:19:27.650Z,97854.72
2023-02-05T19:21:59.940Z,97853.22
2023-02-05T19:24:29.102Z,97845.19
2023-02-05T19:26:59.100Z,97861.75
2023-02-05T19:29:28.037Z,97863.53
2023-02-05T19:31:57.389Z,97861.50
2023-02-05T19:34:27.726Z,97856.81
2023-02-05T19:36:56.163Z,97855.63
2023-02-05T19:39:24.563Z,97854.59
2023-02-05T19:41:53.183Z,97857.97
2023-02-05T19:44:23.705Z,97857.97
2023-02-05T19:46:52.324Z,97861.44
2023-02-05T19:49:22.415Z,97853.38
2023-02-05T19:51:54.031Z,97849.03
2023-02-05T19:54:23.180Z,97859.50
2023-02-05T19:56:52.064Z,97859.50
2023-02-05T19:59:21.027Z,97862.94
2023-02-05T20:01:50.950Z,97860.31
2023-02-05T20:04:22.146Z,97858.53
2023-02-05T20:06:52.901Z,97855.00
2023-02-05T20:09:21.670Z,97871.63
2023-02-05T20:11:52.555Z,97872.38
2023-02-05T20:14:21.394Z,97873.34
2023-02-05T20:16:52.000Z,97874.09
2023-02-05T20:19:20.938Z,97878.47
2023-02-05T20:21:50.079Z,97869.78
2023-02-05T20:24:18.460Z,97873.34
2023-02-05T20:26:48.835Z,97867.22
2023-02-05T20:29:35.219Z,97868.25
2023-02-05T20:32:05.730Z,97871.72
2023-02-05T20:34:35.969Z,97877.72
2023-02-05T20:37:07.012Z,97874.34
2023-02-05T20:39:38.623Z,97878.66
2023-02-05T20:42:07.734Z,97873.34
2023-02-05T20:44:37.067Z,97877.91
2023-02-05T20:47:08.271Z,97879.03
2023-02-05T20:49:37.870Z,97893.69
2023-02-05T20:52:06.669Z,97895.47
2023-02-05T20:54:35.938Z,97895.56
2023-02-05T20:57:04.335Z,97897.34
2023-02-05T20:59:33.763Z,97902.91
2023-02-05T21:02:02.581Z,97910.13
2023-02-05T21:04:32.563Z,97919.16
2023-02-05T21:07:00.989Z,97918.97
2023-02-05T21:09:29.372Z,97928.44
2023-02-05T21:11:57.770Z,97931.63
2023-02-05T21:14:29.510Z,97936.69
2023-02-05T21:16:58.013Z,97930.44
2023-02-05T21:19:26.433Z,97934.91
2023-02-05T21:21:56.085Z,97931.06
2023-02-05T21:24:24.485Z,97941.53
2023-02-05T21:26:52.811Z,97942.66
2023-02-05T21:29:21.821Z,97948.22
2023-02-05T21:31:53.091Z,97949.25
2023-02-05T21:34:25.439Z,97955.22
2023-02-05T21:36:56.242Z,97958.84
2023-02-05T21:39:25.539Z,97957.91
2023-02-05T21:41:54.686Z,97964.59
2023-02-05T21:44:25.246Z,97975.75
2023-02-05T21:46:55.274Z,97973.69
2023-02-05T21:49:23.681Z,97979.69
2023-02-05T21:51:53.467Z,97984.34
2023-02-05T21:54:25.622Z,97995.81
2023-02-05T21:56:54.540Z,97993.03
2023-02-05T21:59:23.346Z,98008.66
2023-02-05T22:01:51.794Z,98005.97
2023-02-05T22:04:20.323Z,98010.94
2023-02-05T22:06:48.726Z,98008.31
2023-02-05T22:09:17.651Z,98014.31
2023-02-05T22:11:49.694Z,98016.00
2023-02-05T22:14:18.120Z,98025.47
2023-02-05T22:16:46.554Z,98023.69
2023-02-05T22:19:14.964Z,98023.69
2023-02-05T22:21:43.956Z,98021.91
2023-02-05T22:24:15.749Z,98020.16
2023-02-05T22:26:44.755Z,98030.69
2023-02-05T22:29:16.318Z,98034.34
2023-02-05T22:31:45.362Z,98035.25
2023-02-05T22:34:13.958Z,98038.69
2023-02-05T22:36:42.437Z,98036.28
2023-02-05T22:39:10.832Z,98033.81
2023-02-05T22:41:41.808Z,98040.91
2023-02-05T22:44:11.873Z,98038.44
2023-02-05T22:46:43.679Z,98042.91
2023-02-05T22:49:15.716Z,98046.53
2023-02-05T22:51:45.187Z,98045.00
2023-02-05T22:54:15.200Z,98043.41
2023-02-05T22:56:44.152Z,98042.72
2023-02-05T22:59:12.975Z,98046.19
2023-02-05T23:01:42.924Z,98042.66
2023-02-05T23:04:12.041Z,98033.09
2023-02-05T23:06:42.670Z,98041.22
2023-02-05T23:09:14.329Z,98041.22
2023-02-05T23:11:43.262Z,98031.66
2023-02-05T23:14:13.873Z,98037.97
2023-02-05T23:16:45.917Z,98035.06
2023-02-05T23:19:16.953Z,98030.50
2023-02-05T23:21:45.760Z,98027.19
2023-02-05T23:24:14.549Z,98033.81
2023-02-05T23:26:45.418Z,98031.13
2023-02-05T23:29:15.452Z,98027.91
2023-02-05T23:31:45.266Z,98032.91
2023-02-05T23:34:14.318Z,98026.06
2023-02-05T23:36:42.669Z,98029.59
2023-02-05T23:39:11.188Z,98030.34
2023-02-05T23:41:40.351Z,98035.44
2023-02-05T23:44:12.141Z,98043.22
2023-02-05T23:46:41.651Z,98038.81
2023-02-05T23:49:12.155Z,98035.28
2023-02-05T23:51:41.526Z,98033.59
2023-02-05T23:54:12.170Z,98030.13
2023-02-05T23:56:40.892Z,98031.03
2023-02-05T23:59:10.929Z,98028.69
